sensor_id;sensor_type;location;lat;lon;timestamp;P1;durP1;ratioP1;P2;durP2;ratioP2
57241;SDS011;43095;53.302;5.786;2023-04-24T00:02:09;10.05;;;6.30;;
57241;SDS011;43095;53.302;5.786;2023-04-24T00:04:37;10.93;;;6.25;;
57241;SDS011;43095;53.302;5.786;2023-04-24T00:07:07;18.63;;;6.45;;
57241;SDS011;43095;53.302;5.786;2023-04-24T00:09:35;11.02;;;6.82;;
57241;SDS011;43095;53.302;5.786;2023-04-24T00:12:02;8.90;;;5.93;;
57241;SDS011;43095;53.302;5.786;2023-04-24T00:14:31;14.73;;;6.65;;
57241;SDS011;43095;53.302;5.786;2023-04-24T00:16:58;10.63;;;6.55;;
57241;SDS011;43095;53.302;5.786;2023-04-24T00:19:25;10.60;;;6.45;;
57241;SDS011;43095;53.302;5.786;2023-04-24T00:21:52;11.90;;;6.30;;
57241;SDS011;43095;53.302;5.786;2023-04-24T00:24:20;12.75;;;6.68;;
57241;SDS011;43095;53.302;5.786;2023-04-24T00:26:47;12.43;;;6.43;;
57241;SDS011;43095;53.302;5.786;2023-04-24T00:29:14;9.75;;;6.28;;
57241;SDS011;43095;53.302;5.786;2023-04-24T00:31:42;11.57;;;6.80;;
57241;SDS011;43095;53.302;5.786;2023-04-24T00:34:09;9.90;;;5.07;;
57241;SDS011;43095;53.302;5.786;2023-04-24T00:36:38;9.13;;;4.53;;
57241;SDS011;43095;53.302;5.786;2023-04-24T00:39:05;6.57;;;4.22;;
57241;SDS011;43095;53.302;5.786;2023-04-24T00:41:35;8.50;;;4.82;;
57241;SDS011;43095;53.302;5.786;2023-04-24T00:44:02;8.45;;;4.18;;
57241;SDS011;43095;53.302;5.786;2023-04-24T00:46:29;9.82;;;4.68;;
57241;SDS011;43095;53.302;5.786;2023-04-24T00:48:58;6.82;;;3.88;;
57241;SDS011;43095;53.302;5.786;2023-04-24T00:51:26;10.15;;;5.50;;
57241;SDS011;43095;53.302;5.786;2023-04-24T00:53:53;9.65;;;5.63;;
57241;SDS011;43095;53.302;5.786;2023-04-24T00:56:21;13.75;;;6.35;;
57241;SDS011;43095;53.302;5.786;2023-04-24T00:58:48;12.75;;;7.03;;
57241;SDS011;43095;53.302;5.786;2023-04-24T01:01:16;15.05;;;6.85;;
57241;SDS011;43095;53.302;5.786;2023-04-24T01:03:47;17.48;;;6.97;;
57241;SDS011;43095;53.302;5.786;2023-04-24T01:06:18;12.50;;;6.30;;
57241;SDS011;43095;53.302;5.786;2023-04-24T01:08:45;9.90;;;5.45;;
57241;SDS011;43095;53.302;5.786;2023-04-24T01:11:13;9.45;;;5.63;;
57241;SDS011;43095;53.302;5.786;2023-04-24T01:13:41;11.25;;;6.25;;
57241;SDS011;43095;53.302;5.786;2023-04-24T01:16:09;13.80;;;6.45;;
57241;SDS011;43095;53.302;5.786;2023-04-24T01:18:36;11.80;;;6.00;;
57241;SDS011;43095;53.302;5.786;2023-04-24T01:21:04;10.68;;;5.30;;
57241;SDS011;43095;53.302;5.786;2023-04-24T01:23:34;9.40;;;5.63;;
57241;SDS011;43095;53.302;5.786;2023-04-24T01:26:01;8.90;;;5.40;;
57241;SDS011;43095;53.302;5.786;2023-04-24T01:28:29;9.05;;;5.70;;
57241;SDS011;43095;53.302;5.786;2023-04-24T01:30:56;8.40;;;5.88;;
57241;SDS011;43095;53.302;5.786;2023-04-24T01:33:23;9.18;;;5.93;;
57241;SDS011;43095;53.302;5.786;2023-04-24T01:35:51;11.18;;;5.97;;
57241;SDS011;43095;53.302;5.786;2023-04-24T01:38:19;15.93;;;8.98;;
57241;SDS011;43095;53.302;5.786;2023-04-24T01:40:46;18.80;;;10.50;;
57241;SDS011;43095;53.302;5.786;2023-04-24T01:43:13;15.93;;;10.80;;
57241;SDS011;43095;53.302;5.786;2023-04-24T01:45:40;22.40;;;10.57;;
57241;SDS011;43095;53.302;5.786;2023-04-24T01:48:08;20.65;;;13.63;;
57241;SDS011;43095;53.302;5.786;2023-04-24T01:50:35;21.42;;;13.60;;
57241;SDS011;43095;53.302;5.786;2023-04-24T01:53:02;23.25;;;15.00;;
57241;SDS011;43095;53.302;5.786;2023-04-24T01:55:30;24.15;;;14.10;;
57241;SDS011;43095;53.302;5.786;2023-04-24T01:57:57;28.60;;;16.27;;
57241;SDS011;43095;53.302;5.786;2023-04-24T02:00:26;25.30;;;15.40;;
57241;SDS011;43095;53.302;5.786;2023-04-24T02:02:53;25.75;;;14.00;;
57241;SDS011;43095;53.302;5.786;2023-04-24T02:05:21;21.98;;;13.05;;
57241;SDS011;43095;53.302;5.786;2023-04-24T02:07:48;21.90;;;12.25;;
57241;SDS011;43095;53.302;5.786;2023-04-24T02:10:16;14.90;;;10.35;;
57241;SDS011;43095;53.302;5.786;2023-04-24T02:12:45;15.60;;;9.77;;
57241;SDS011;43095;53.302;5.786;2023-04-24T02:15:12;11.25;;;7.38;;
57241;SDS011;43095;53.302;5.786;2023-04-24T02:17:39;13.30;;;6.20;;
57241;SDS011;43095;53.302;5.786;2023-04-24T02:20:06;6.18;;;4.65;;
57241;SDS011;43095;53.302;5.786;2023-04-24T02:22:34;9.00;;;5.15;;
57241;SDS011;43095;53.302;5.786;2023-04-24T02:25:01;5.30;;;3.40;;
57241;SDS011;43095;53.302;5.786;2023-04-24T02:27:28;8.50;;;3.78;;
57241;SDS011;43095;53.302;5.786;2023-04-24T02:29:56;5.47;;;2.83;;
57241;SDS011;43095;53.302;5.786;2023-04-24T02:32:23;4.78;;;2.50;;
57241;SDS011;43095;53.302;5.786;2023-04-24T02:34:50;5.00;;;2.15;;
57241;SDS011;43095;53.302;5.786;2023-04-24T02:37:18;4.57;;;1.90;;
57241;SDS011;43095;53.302;5.786;2023-04-24T02:39:45;4.25;;;1.65;;
57241;SDS011;43095;53.302;5.786;2023-04-24T02:42:12;4.25;;;1.70;;
57241;SDS011;43095;53.302;5.786;2023-04-24T02:44:39;2.78;;;1.50;;
57241;SDS011;43095;53.302;5.786;2023-04-24T02:47:07;8.02;;;2.13;;
57241;SDS011;43095;53.302;5.786;2023-04-24T02:49:35;4.22;;;1.42;;
57241;SDS011;43095;53.302;5.786;2023-04-24T02:52:02;3.25;;;1.52;;
57241;SDS011;43095;53.302;5.786;2023-04-24T02:54:29;5.10;;;1.63;;
57241;SDS011;43095;53.302;5.786;2023-04-24T02:56:56;2.45;;;1.17;;
57241;SDS011;43095;53.302;5.786;2023-04-24T02:59:23;3.40;;;1.52;;
57241;SDS011;43095;53.302;5.786;2023-04-24T03:01:51;4.07;;;1.65;;
57241;SDS011;43095;53.302;5.786;2023-04-24T03:04:18;1.80;;;1.20;;
57241;SDS011;43095;53.302;5.786;2023-04-24T03:06:47;4.00;;;1.70;;
57241;SDS011;43095;53.302;5.786;2023-04-24T03:09:14;7.07;;;2.05;;
57241;SDS011;43095;53.302;5.786;2023-04-24T03:11:41;3.15;;;1.60;;
57241;SDS011;43095;53.302;5.786;2023-04-24T03:14:08;4.50;;;1.70;;
57241;SDS011;43095;53.302;5.786;2023-04-24T03:16:37;5.55;;;2.40;;
57241;SDS011;43095;53.302;5.786;2023-04-24T03:19:05;6.95;;;2.75;;
57241;SDS011;43095;53.302;5.786;2023-04-24T03:21:39;7.05;;;3.08;;
57241;SDS011;43095;53.302;5.786;2023-04-24T03:24:07;5.03;;;2.47;;
57241;SDS011;43095;53.302;5.786;2023-04-24T03:26:38;5.97;;;3.22;;
57241;SDS011;43095;53.302;5.786;2023-04-24T03:29:28;4.82;;;2.80;;
57241;SDS011;43095;53.302;5.786;2023-04-24T03:31:56;4.78;;;2.95;;
57241;SDS011;43095;53.302;5.786;2023-04-24T03:34:24;7.43;;;4.45;;
57241;SDS011;43095;53.302;5.786;2023-04-24T03:36:51;9.35;;;4.72;;
57241;SDS011;43095;53.302;5.786;2023-04-24T03:39:23;7.38;;;3.75;;
57241;SDS011;43095;53.302;5.786;2023-04-24T03:41:54;5.07;;;2.60;;
57241;SDS011;43095;53.302;5.786;2023-04-24T03:44:29;3.63;;;1.90;;
57241;SDS011;43095;53.302;5.786;2023-04-24T03:46:57;7.28;;;2.03;;
57241;SDS011;43095;53.302;5.786;2023-04-24T03:49:28;3.05;;;1.77;;
57241;SDS011;43095;53.302;5.786;2023-04-24T03:51:55;4.97;;;2.60;;
57241;SDS011;43095;53.302;5.786;2023-04-24T03:54:25;4.13;;;2.20;;
57241;SDS011;43095;53.302;5.786;2023-04-24T03:56:53;7.00;;;3.47;;
57241;SDS011;43095;53.302;5.786;2023-04-24T03:59:21;8.13;;;3.03;;
57241;SDS011;43095;53.302;5.786;2023-04-24T04:02:02;7.53;;;3.65;;
57241;SDS011;43095;53.302;5.786;2023-04-24T04:04:29;9.77;;;5.80;;
57241;SDS011;43095;53.302;5.786;2023-04-24T04:06:57;19.20;;;9.20;;
57241;SDS011;43095;53.302;5.786;2023-04-24T04:09:27;17.00;;;9.35;;
57241;SDS011;43095;53.302;5.786;2023-04-24T04:11:54;16.85;;;9.93;;
57241;SDS011;43095;53.302;5.786;2023-04-24T04:14:22;20.10;;;10.80;;
57241;SDS011;43095;53.302;5.786;2023-04-24T04:16:49;16.73;;;8.73;;
57241;SDS011;43095;53.302;5.786;2023-04-24T04:19:20;18.63;;;7.32;;
57241;SDS011;43095;53.302;5.786;2023-04-24T04:21:48;12.40;;;6.72;;
57241;SDS011;43095;53.302;5.786;2023-04-24T04:24:27;10.40;;;5.90;;
57241;SDS011;43095;53.302;5.786;2023-04-24T04:26:57;12.20;;;5.97;;
57241;SDS011;43095;53.302;5.786;2023-04-24T04:29:28;9.82;;;6.00;;
57241;SDS011;43095;53.302;5.786;2023-04-24T04:31:55;14.85;;;6.40;;
57241;SDS011;43095;53.302;5.786;2023-04-24T04:34:23;12.35;;;7.30;;
57241;SDS011;43095;53.302;5.786;2023-04-24T04:36:51;18.23;;;8.77;;
57241;SDS011;43095;53.302;5.786;2023-04-24T04:39:38;21.77;;;11.93;;
57241;SDS011;43095;53.302;5.786;2023-04-24T04:42:10;23.80;;;11.73;;
57241;SDS011;43095;53.302;5.786;2023-04-24T04:44:42;21.80;;;11.55;;
57241;SDS011;43095;53.302;5.786;2023-04-24T04:47:16;15.32;;;10.05;;
57241;SDS011;43095;53.302;5.786;2023-04-24T04:49:44;17.58;;;10.55;;
57241;SDS011;43095;53.302;5.786;2023-04-24T04:54:49;15.02;;;7.82;;
57241;SDS011;43095;53.302;5.786;2023-04-24T04:57:21;7.28;;;4.20;;
57241;SDS011;43095;53.302;5.786;2023-04-24T04:59:49;7.95;;;4.13;;
57241;SDS011;43095;53.302;5.786;2023-04-24T05:02:28;7.78;;;4.45;;
57241;SDS011;43095;53.302;5.786;2023-04-24T05:04:55;7.60;;;4.18;;
57241;SDS011;43095;53.302;5.786;2023-04-24T05:07:22;7.07;;;4.47;;
57241;SDS011;43095;53.302;5.786;2023-04-24T05:09:51;6.22;;;4.28;;
57241;SDS011;43095;53.302;5.786;2023-04-24T05:12:18;7.15;;;4.53;;
57241;SDS011;43095;53.302;5.786;2023-04-24T05:14:50;10.73;;;4.30;;
57241;SDS011;43095;53.302;5.786;2023-04-24T05:17:17;8.40;;;3.38;;
57241;SDS011;43095;53.302;5.786;2023-04-24T05:19:45;6.47;;;3.75;;
57241;SDS011;43095;53.302;5.786;2023-04-24T05:22:13;10.95;;;3.80;;
57241;SDS011;43095;53.302;5.786;2023-04-24T05:24:47;5.97;;;2.50;;
57241;SDS011;43095;53.302;5.786;2023-04-24T05:27:38;5.90;;;2.90;;
57241;SDS011;43095;53.302;5.786;2023-04-24T05:30:12;10.95;;;4.32;;
57241;SDS011;43095;53.302;5.786;2023-04-24T05:32:39;9.73;;;4.85;;
57241;SDS011;43095;53.302;5.786;2023-04-24T05:35:06;13.55;;;5.47;;
57241;SDS011;43095;53.302;5.786;2023-04-24T05:37:35;13.00;;;5.90;;
57241;SDS011;43095;53.302;5.786;2023-04-24T05:40:02;10.98;;;5.97;;
57241;SDS011;43095;53.302;5.786;2023-04-24T05:42:31;13.52;;;5.30;;
57241;SDS011;43095;53.302;5.786;2023-04-24T05:44:59;6.57;;;4.03;;
57241;SDS011;43095;53.302;5.786;2023-04-24T05:47:27;9.98;;;4.57;;
57241;SDS011;43095;53.302;5.786;2023-04-24T05:49:54;11.32;;;5.32;;
57241;SDS011;43095;53.302;5.786;2023-04-24T05:52:22;11.23;;;3.58;;
57241;SDS011;43095;53.302;5.786;2023-04-24T05:54:49;5.63;;;2.80;;
57241;SDS011;43095;53.302;5.786;2023-04-24T05:57:21;8.85;;;2.85;;
57241;SDS011;43095;53.302;5.786;2023-04-24T05:59:54;7.97;;;3.58;;
57241;SDS011;43095;53.302;5.786;2023-04-24T06:02:21;7.32;;;2.40;;
57241;SDS011;43095;53.302;5.786;2023-04-24T06:04:50;9.48;;;2.55;;
57241;SDS011;43095;53.302;5.786;2023-04-24T06:07:18;9.82;;;2.80;;
57241;SDS011;43095;53.302;5.786;2023-04-24T06:09:45;13.75;;;3.05;;
57241;SDS011;43095;53.302;5.786;2023-04-24T06:12:13;7.22;;;2.95;;
57241;SDS011;43095;53.302;5.786;2023-04-24T06:14:53;12.88;;;5.20;;
57241;SDS011;43095;53.302;5.786;2023-04-24T06:17:42;15.30;;;7.68;;
57241;SDS011;43095;53.302;5.786;2023-04-24T06:20:10;20.88;;;7.95;;
57241;SDS011;43095;53.302;5.786;2023-04-24T06:22:39;22.23;;;9.45;;
57241;SDS011;43095;53.302;5.786;2023-04-24T06:25:08;24.50;;;10.98;;
57241;SDS011;43095;53.302;5.786;2023-04-24T06:27:36;25.15;;;12.93;;
57241;SDS011;43095;53.302;5.786;2023-04-24T06:30:04;27.50;;;13.32;;
57241;SDS011;43095;53.302;5.786;2023-04-24T06:32:32;26.30;;;14.35;;
57241;SDS011;43095;53.302;5.786;2023-04-24T06:35:00;30.25;;;15.73;;
57241;SDS011;43095;53.302;5.786;2023-04-24T06:37:27;29.60;;;17.60;;
57241;SDS011;43095;53.302;5.786;2023-04-24T06:39:55;27.02;;;14.52;;
57241;SDS011;43095;53.302;5.786;2023-04-24T06:42:26;26.92;;;15.00;;
57241;SDS011;43095;53.302;5.786;2023-04-24T06:44:54;29.77;;;14.45;;
57241;SDS011;43095;53.302;5.786;2023-04-24T06:47:21;24.30;;;13.30;;
57241;SDS011;43095;53.302;5.786;2023-04-24T06:49:49;19.50;;;10.13;;
57241;SDS011;43095;53.302;5.786;2023-04-24T06:52:19;15.00;;;10.07;;
57241;SDS011;43095;53.302;5.786;2023-04-24T06:54:46;21.65;;;11.50;;
57241;SDS011;43095;53.302;5.786;2023-04-24T06:57:13;30.75;;;15.32;;
57241;SDS011;43095;53.302;5.786;2023-04-24T06:59:43;30.77;;;16.65;;
57241;SDS011;43095;53.302;5.786;2023-04-24T07:02:10;36.00;;;18.40;;
57241;SDS011;43095;53.302;5.786;2023-04-24T07:04:37;30.95;;;16.27;;
57241;SDS011;43095;53.302;5.786;2023-04-24T07:07:05;31.02;;;17.70;;
57241;SDS011;43095;53.302;5.786;2023-04-24T07:09:33;29.58;;;17.23;;
57241;SDS011;43095;53.302;5.786;2023-04-24T07:12:01;30.05;;;16.58;;
57241;SDS011;43095;53.302;5.786;2023-04-24T07:14:29;27.35;;;16.90;;
57241;SDS011;43095;53.302;5.786;2023-04-24T07:16:56;28.10;;;16.58;;
57241;SDS011;43095;53.302;5.786;2023-04-24T07:19:23;26.85;;;16.25;;
57241;SDS011;43095;53.302;5.786;2023-04-24T07:21:50;23.40;;;14.50;;
57241;SDS011;43095;53.302;5.786;2023-04-24T07:24:17;21.25;;;14.82;;
57241;SDS011;43095;53.302;5.786;2023-04-24T07:26:48;27.33;;;14.68;;
57241;SDS011;43095;53.302;5.786;2023-04-24T07:29:15;23.48;;;11.57;;
57241;SDS011;43095;53.302;5.786;2023-04-24T07:31:42;25.80;;;10.80;;
57241;SDS011;43095;53.302;5.786;2023-04-24T07:34:10;18.38;;;10.70;;
57241;SDS011;43095;53.302;5.786;2023-04-24T07:36:37;24.67;;;10.20;;
57241;SDS011;43095;53.302;5.786;2023-04-24T07:39:06;15.15;;;9.13;;
57241;SDS011;43095;53.302;5.786;2023-04-24T07:41:35;16.67;;;8.73;;
57241;SDS011;43095;53.302;5.786;2023-04-24T07:44:02;13.98;;;8.35;;
57241;SDS011;43095;53.302;5.786;2023-04-24T07:46:31;16.25;;;8.35;;
57241;SDS011;43095;53.302;5.786;2023-04-24T07:48:59;20.27;;;8.75;;
57241;SDS011;43095;53.302;5.786;2023-04-24T07:51:39;18.17;;;8.85;;
57241;SDS011;43095;53.302;5.786;2023-04-24T07:54:06;14.23;;;7.72;;
57241;SDS011;43095;53.302;5.786;2023-04-24T07:56:33;12.52;;;7.88;;
57241;SDS011;43095;53.302;5.786;2023-04-24T07:59:01;17.85;;;8.77;;
57241;SDS011;43095;53.302;5.786;2023-04-24T08:01:28;14.50;;;7.45;;
57241;SDS011;43095;53.302;5.786;2023-04-24T08:03:55;15.73;;;7.90;;
57241;SDS011;43095;53.302;5.786;2023-04-24T08:06:23;12.68;;;7.13;;
57241;SDS011;43095;53.302;5.786;2023-04-24T08:08:51;13.65;;;6.85;;
57241;SDS011;43095;53.302;5.786;2023-04-24T08:11:18;16.70;;;8.07;;
57241;SDS011;43095;53.302;5.786;2023-04-24T08:13:48;23.40;;;8.82;;
57241;SDS011;43095;53.302;5.786;2023-04-24T08:16:15;21.00;;;8.30;;
57241;SDS011;43095;53.302;5.786;2023-04-24T08:18:42;13.43;;;8.30;;
57241;SDS011;43095;53.302;5.786;2023-04-24T08:21:09;15.10;;;7.65;;
57241;SDS011;43095;53.302;5.786;2023-04-24T08:23:37;13.68;;;7.18;;
57241;SDS011;43095;53.302;5.786;2023-04-24T08:26:07;19.27;;;6.57;;
57241;SDS011;43095;53.302;5.786;2023-04-24T08:28:34;19.10;;;7.10;;
57241;SDS011;43095;53.302;5.786;2023-04-24T08:31:01;24.85;;;7.45;;
57241;SDS011;43095;53.302;5.786;2023-04-24T08:33:28;17.10;;;6.13;;
57241;SDS011;43095;53.302;5.786;2023-04-24T08:36:04;16.80;;;6.53;;
57241;SDS011;43095;53.302;5.786;2023-04-24T08:38:33;18.23;;;5.55;;
57241;SDS011;43095;53.302;5.786;2023-04-24T08:41:00;15.15;;;5.30;;
57241;SDS011;43095;53.302;5.786;2023-04-24T08:43:28;13.98;;;5.22;;
57241;SDS011;43095;53.302;5.786;2023-04-24T08:45:56;14.48;;;5.63;;
57241;SDS011;43095;53.302;5.786;2023-04-24T08:48:25;13.15;;;4.95;;
57241;SDS011;43095;53.302;5.786;2023-04-24T08:50:58;10.25;;;4.40;;
57241;SDS011;43095;53.302;5.786;2023-04-24T08:53:25;13.52;;;3.55;;
57241;SDS011;43095;53.302;5.786;2023-04-24T08:55:54;16.40;;;5.25;;
57241;SDS011;43095;53.302;5.786;2023-04-24T08:58:22;12.15;;;3.22;;
57241;SDS011;43095;53.302;5.786;2023-04-24T09:00:54;13.27;;;4.65;;
57241;SDS011;43095;53.302;5.786;2023-04-24T09:03:22;14.20;;;5.07;;
57241;SDS011;43095;53.302;5.786;2023-04-24T09:05:50;17.05;;;4.38;;
57241;SDS011;43095;53.302;5.786;2023-04-24T09:08:19;19.02;;;5.65;;
57241;SDS011;43095;53.302;5.786;2023-04-24T09:10:50;17.95;;;4.85;;
57241;SDS011;43095;53.302;5.786;2023-04-24T09:13:17;16.67;;;4.25;;
57241;SDS011;43095;53.302;5.786;2023-04-24T09:15:46;19.63;;;4.32;;
57241;SDS011;43095;53.302;5.786;2023-04-24T09:18:13;17.23;;;3.40;;
57241;SDS011;43095;53.302;5.786;2023-04-24T09:23:31;10.02;;;3.08;;
57241;SDS011;43095;53.302;5.786;2023-04-24T09:25:59;11.30;;;3.78;;
57241;SDS011;43095;53.302;5.786;2023-04-24T09:28:32;12.23;;;3.17;;
57241;SDS011;43095;53.302;5.786;2023-04-24T09:31:09;13.77;;;3.83;;
57241;SDS011;43095;53.302;5.786;2023-04-24T09:34:03;17.20;;;3.10;;
57241;SDS011;43095;53.302;5.786;2023-04-24T09:36:34;14.93;;;3.30;;
57241;SDS011;43095;53.302;5.786;2023-04-24T09:39:08;13.55;;;3.70;;
57241;SDS011;43095;53.302;5.786;2023-04-24T09:41:49;8.98;;;3.22;;
57241;SDS011;43095;53.302;5.786;2023-04-24T09:44:20;17.15;;;3.03;;
57241;SDS011;43095;53.302;5.786;2023-04-24T09:46:50;10.32;;;2.78;;
57241;SDS011;43095;53.302;5.786;2023-04-24T09:49:28;15.15;;;3.92;;
57241;SDS011;43095;53.302;5.786;2023-04-24T09:52:07;17.35;;;3.47;;
57241;SDS011;43095;53.302;5.786;2023-04-24T09:54:35;9.80;;;3.28;;
57241;SDS011;43095;53.302;5.786;2023-04-24T09:57:03;15.82;;;3.47;;
57241;SDS011;43095;53.302;5.786;2023-04-24T09:59:31;15.88;;;3.40;;
57241;SDS011;43095;53.302;5.786;2023-04-24T10:02:01;16.75;;;2.92;;
57241;SDS011;43095;53.302;5.786;2023-04-24T10:04:29;13.70;;;3.30;;
57241;SDS011;43095;53.302;5.786;2023-04-24T10:06:56;14.00;;;2.90;;
57241;SDS011;43095;53.302;5.786;2023-04-24T10:09:25;12.52;;;2.67;;
57241;SDS011;43095;53.302;5.786;2023-04-24T10:11:53;12.90;;;2.15;;
57241;SDS011;43095;53.302;5.786;2023-04-24T10:14:22;14.13;;;2.30;;
57241;SDS011;43095;53.302;5.786;2023-04-24T10:16:54;13.38;;;2.85;;
57241;SDS011;43095;53.302;5.786;2023-04-24T10:19:25;13.00;;;2.55;;
57241;SDS011;43095;53.302;5.786;2023-04-24T10:21:52;10.55;;;2.17;;
57241;SDS011;43095;53.302;5.786;2023-04-24T10:24:22;14.80;;;3.72;;
57241;SDS011;43095;53.302;5.786;2023-04-24T10:26:49;16.13;;;3.47;;
57241;SDS011;43095;53.302;5.786;2023-04-24T10:29:17;15.10;;;2.88;;
57241;SDS011;43095;53.302;5.786;2023-04-24T10:31:45;15.10;;;3.25;;
57241;SDS011;43095;53.302;5.786;2023-04-24T10:34:14;11.93;;;2.78;;
57241;SDS011;43095;53.302;5.786;2023-04-24T10:37:02;8.40;;;2.20;;
57241;SDS011;43095;53.302;5.786;2023-04-24T10:39:29;11.73;;;2.08;;
57241;SDS011;43095;53.302;5.786;2023-04-24T10:41:59;12.90;;;2.20;;
57241;SDS011;43095;53.302;5.786;2023-04-24T10:44:31;12.95;;;2.08;;
57241;SDS011;43095;53.302;5.786;2023-04-24T10:47:02;8.00;;;1.70;;
57241;SDS011;43095;53.302;5.786;2023-04-24T10:49:31;7.85;;;1.75;;
57241;SDS011;43095;53.302;5.786;2023-04-24T10:52:02;11.43;;;2.30;;
57241;SDS011;43095;53.302;5.786;2023-04-24T10:54:36;11.32;;;2.15;;
57241;SDS011;43095;53.302;5.786;2023-04-24T10:59:51;12.43;;;3.17;;
57241;SDS011;43095;53.302;5.786;2023-04-24T11:02:40;9.10;;;1.98;;
57241;SDS011;43095;53.302;5.786;2023-04-24T11:05:16;5.53;;;1.60;;
57241;SDS011;43095;53.302;5.786;2023-04-24T11:16:25;7.47;;;1.40;;
57241;SDS011;43095;53.302;5.786;2023-04-24T11:18:52;5.75;;;1.60;;
57241;SDS011;43095;53.302;5.786;2023-04-24T11:21:47;7.78;;;1.70;;
57241;SDS011;43095;53.302;5.786;2023-04-24T11:27:23;5.85;;;1.75;;
57241;SDS011;43095;53.302;5.786;2023-04-24T11:35:02;9.50;;;1.65;;
57241;SDS011;43095;53.302;5.786;2023-04-24T11:37:35;6.13;;;1.35;;
57241;SDS011;43095;53.302;5.786;2023-04-24T11:40:06;8.60;;;1.40;;
57241;SDS011;43095;53.302;5.786;2023-04-24T11:42:35;6.45;;;1.45;;
57241;SDS011;43095;53.302;5.786;2023-04-24T11:45:14;10.40;;;1.75;;
57241;SDS011;43095;53.302;5.786;2023-04-24T11:47:43;15.30;;;2.33;;
57241;SDS011;43095;53.302;5.786;2023-04-24T11:50:12;7.57;;;1.13;;
57241;SDS011;43095;53.302;5.786;2023-04-24T11:52:42;7.82;;;1.42;;
57241;SDS011;43095;53.302;5.786;2023-04-24T11:57:45;7.28;;;1.27;;
57241;SDS011;43095;53.302;5.786;2023-04-24T12:00:17;7.72;;;1.42;;
57241;SDS011;43095;53.302;5.786;2023-04-24T12:02:47;6.30;;;1.70;;
57241;SDS011;43095;53.302;5.786;2023-04-24T12:05:29;6.88;;;1.20;;
57241;SDS011;43095;53.302;5.786;2023-04-24T12:07:58;4.82;;;0.70;;
57241;SDS011;43095;53.302;5.786;2023-04-24T12:10:26;8.15;;;1.27;;
57241;SDS011;43095;53.302;5.786;2023-04-24T12:12:56;9.40;;;1.42;;
57241;SDS011;43095;53.302;5.786;2023-04-24T12:15:24;10.23;;;1.45;;
57241;SDS011;43095;53.302;5.786;2023-04-24T12:17:52;9.55;;;1.33;;
57241;SDS011;43095;53.302;5.786;2023-04-24T12:20:29;5.65;;;1.35;;
57241;SDS011;43095;53.302;5.786;2023-04-24T12:22:58;9.45;;;2.53;;
57241;SDS011;43095;53.302;5.786;2023-04-24T12:25:33;3.15;;;0.68;;
57241;SDS011;43095;53.302;5.786;2023-04-24T12:30:33;5.45;;;0.68;;
57241;SDS011;43095;53.302;5.786;2023-04-24T12:33:02;5.00;;;1.13;;
57241;SDS011;43095;53.302;5.786;2023-04-24T12:35:31;2.28;;;0.50;;
57241;SDS011;43095;53.302;5.786;2023-04-24T12:38:10;10.50;;;1.23;;
57241;SDS011;43095;53.302;5.786;2023-04-24T12:40:42;6.05;;;0.82;;
57241;SDS011;43095;53.302;5.786;2023-04-24T12:45:49;5.38;;;1.23;;
57241;SDS011;43095;53.302;5.786;2023-04-24T12:48:16;7.53;;;1.35;;
57241;SDS011;43095;53.302;5.786;2023-04-24T12:50:44;7.88;;;1.63;;
57241;SDS011;43095;53.302;5.786;2023-04-24T12:53:13;12.30;;;1.90;;
57241;SDS011;43095;53.302;5.786;2023-04-24T12:55:41;9.45;;;2.05;;
57241;SDS011;43095;53.302;5.786;2023-04-24T12:58:09;10.30;;;2.75;;
57241;SDS011;43095;53.302;5.786;2023-04-24T13:00:36;11.00;;;2.05;;
57241;SDS011;43095;53.302;5.786;2023-04-24T13:03:04;13.77;;;2.67;;
57241;SDS011;43095;53.302;5.786;2023-04-24T13:05:32;15.82;;;2.90;;
57241;SDS011;43095;53.302;5.786;2023-04-24T13:07:59;14.45;;;2.63;;
57241;SDS011;43095;53.302;5.786;2023-04-24T13:10:27;13.18;;;3.22;;
57241;SDS011;43095;53.302;5.786;2023-04-24T13:12:54;9.73;;;2.47;;
57241;SDS011;43095;53.302;5.786;2023-04-24T13:15:24;11.68;;;2.10;;
57241;SDS011;43095;53.302;5.786;2023-04-24T13:17:51;8.32;;;1.60;;
57241;SDS011;43095;53.302;5.786;2023-04-24T13:20:18;7.63;;;1.83;;
57241;SDS011;43095;53.302;5.786;2023-04-24T13:22:45;9.27;;;2.10;;
57241;SDS011;43095;53.302;5.786;2023-04-24T13:25:13;9.18;;;2.30;;
57241;SDS011;43095;53.302;5.786;2023-04-24T13:27:43;7.40;;;2.47;;
57241;SDS011;43095;53.302;5.786;2023-04-24T13:30:11;9.73;;;2.67;;
57241;SDS011;43095;53.302;5.786;2023-04-24T13:32:41;11.07;;;2.55;;
57241;SDS011;43095;53.302;5.786;2023-04-24T13:35:08;18.92;;;3.60;;
57241;SDS011;43095;53.302;5.786;2023-04-24T13:37:36;13.95;;;2.25;;
57241;SDS011;43095;53.302;5.786;2023-04-24T13:40:03;9.85;;;2.55;;
57241;SDS011;43095;53.302;5.786;2023-04-24T13:42:32;10.90;;;3.03;;
57241;SDS011;43095;53.302;5.786;2023-04-24T13:45:01;14.63;;;2.60;;
57241;SDS011;43095;53.302;5.786;2023-04-24T13:47:48;15.80;;;3.70;;
57241;SDS011;43095;53.302;5.786;2023-04-24T13:50:18;13.52;;;2.85;;
57241;SDS011;43095;53.302;5.786;2023-04-24T13:52:45;12.85;;;3.10;;
57241;SDS011;43095;53.302;5.786;2023-04-24T13:55:12;15.23;;;3.38;;
57241;SDS011;43095;53.302;5.786;2023-04-24T13:57:39;17.63;;;4.15;;
57241;SDS011;43095;53.302;5.786;2023-04-24T14:00:07;13.40;;;3.40;;
57241;SDS011;43095;53.302;5.786;2023-04-24T14:02:37;17.25;;;3.60;;
57241;SDS011;43095;53.302;5.786;2023-04-24T14:05:06;17.15;;;4.20;;
57241;SDS011;43095;53.302;5.786;2023-04-24T14:07:33;15.13;;;3.42;;
57241;SDS011;43095;53.302;5.786;2023-04-24T14:10:00;16.10;;;3.60;;
57241;SDS011;43095;53.302;5.786;2023-04-24T14:12:28;13.90;;;3.42;;
57241;SDS011;43095;53.302;5.786;2023-04-24T14:14:55;14.88;;;3.25;;
57241;SDS011;43095;53.302;5.786;2023-04-24T14:17:22;16.65;;;3.17;;
57241;SDS011;43095;53.302;5.786;2023-04-24T14:19:49;15.57;;;3.63;;
57241;SDS011;43095;53.302;5.786;2023-04-24T14:22:18;14.77;;;3.00;;
57241;SDS011;43095;53.302;5.786;2023-04-24T14:24:45;13.82;;;3.00;;
57241;SDS011;43095;53.302;5.786;2023-04-24T14:27:12;14.35;;;4.43;;
57241;SDS011;43095;53.302;5.786;2023-04-24T14:29:39;22.17;;;4.30;;
57241;SDS011;43095;53.302;5.786;2023-04-24T14:32:07;17.73;;;4.03;;
57241;SDS011;43095;53.302;5.786;2023-04-24T14:34:35;39.70;;;4.93;;
57241;SDS011;43095;53.302;5.786;2023-04-24T14:37:03;18.55;;;3.55;;
57241;SDS011;43095;53.302;5.786;2023-04-24T14:39:30;18.08;;;4.13;;
57241;SDS011;43095;53.302;5.786;2023-04-24T14:41:58;15.85;;;3.80;;
57241;SDS011;43095;53.302;5.786;2023-04-24T14:44:25;14.43;;;4.13;;
57241;SDS011;43095;53.302;5.786;2023-04-24T14:46:52;11.38;;;3.42;;
57241;SDS011;43095;53.302;5.786;2023-04-24T14:49:20;21.27;;;4.60;;
57241;SDS011;43095;53.302;5.786;2023-04-24T14:51:47;21.80;;;4.82;;
57241;SDS011;43095;53.302;5.786;2023-04-24T14:54:14;18.08;;;4.32;;
57241;SDS011;43095;53.302;5.786;2023-04-24T14:56:41;23.25;;;5.57;;
57241;SDS011;43095;53.302;5.786;2023-04-24T14:59:10;22.38;;;5.63;;
57241;SDS011;43095;53.302;5.786;2023-04-24T15:01:37;23.05;;;4.45;;
57241;SDS011;43095;53.302;5.786;2023-04-24T15:04:04;14.45;;;4.95;;
57241;SDS011;43095;53.302;5.786;2023-04-24T15:06:32;17.73;;;4.78;;
57241;SDS011;43095;53.302;5.786;2023-04-24T15:08:59;19.38;;;4.55;;
57241;SDS011;43095;53.302;5.786;2023-04-24T15:11:26;14.43;;;4.65;;
57241;SDS011;43095;53.302;5.786;2023-04-24T15:13:54;16.05;;;4.70;;
57241;SDS011;43095;53.302;5.786;2023-04-24T15:16:23;20.30;;;5.80;;
57241;SDS011;43095;53.302;5.786;2023-04-24T15:18:50;15.80;;;5.00;;
57241;SDS011;43095;53.302;5.786;2023-04-24T15:21:17;17.05;;;6.13;;
57241;SDS011;43095;53.302;5.786;2023-04-24T15:23:45;17.67;;;5.85;;